sensor_id;sensor_type;location;lat;lon;timestamp;pressure;altitude;pressure_sealevel;temperature;humidity
11487;BME280;10510;47.942;9.442;2023-07-09T00:01:56;95084.34;;;16.97;100.00
11487;BME280;10510;47.942;9.442;2023-07-09T00:03:56;95094.47;;;17.00;100.00
11487;BME280;10510;47.942;9.442;2023-07-09T00:05:57;95090.22;;;16.99;100.00
11487;BME280;10510;47.942;9.442;2023-07-09T00:07:57;95096.75;;;16.96;100.00
11487;BME280;10510;47.942;9.442;2023-07-09T00:09:58;95094.31;;;16.95;100.00
11487;BME280;10510;47.942;9.442;2023-07-09T00:11:58;95096.78;;;16.90;100.00
11487;BME280;10510;47.942;9.442;2023-07-09T00:13:59;95100.03;;;16.85;100.00
11487;BME280;10510;47.942;9.442;2023-07-09T00:16:01;95104.75;;;16.83;100.00
11487;BME280;10510;47.942;9.442;2023-07-09T00:18:02;95103.94;;;16.83;100.00
11487;BME280;10510;47.942;9.442;2023-07-09T00:20:04;95095.41;;;16.80;100.00
11487;BME280;10510;47.942;9.442;2023-07-09T00:22:16;95096.84;;;16.76;100.00
11487;BME280;10510;47.942;9.442;2023-07-09T00:24:16;95097.44;;;16.72;100.00
11487;BME280;10510;47.942;9.442;2023-07-09T00:26:18;95095.03;;;16.64;100.00
11487;BME280;10510;47.942;9.442;2023-07-09T00:28:23;95099.34;;;16.51;100.00
11487;BME280;10510;47.942;9.442;2023-07-09T00:30:24;95100.00;;;16.40;100.00
11487;BME280;10510;47.942;9.442;2023-07-09T00:32:24;95101.88;;;16.33;100.00
11487;BME280;10510;47.942;9.442;2023-07-09T00:34:25;95101.25;;;16.31;100.00
11487;BME280;10510;47.942;9.442;2023-07-09T00:36:28;95102.06;;;16.31;100.00
11487;BME280;10510;47.942;9.442;2023-07-09T00:38:31;95096.78;;;16.31;100.00
11487;BME280;10510;47.942;9.442;2023-07-09T00:40:45;95098.63;;;16.31;100.00
11487;BME280;10510;47.942;9.442;2023-07-09T00:42:47;95100.06;;;16.27;100.00
11487;BME280;10510;47.942;9.442;2023-07-09T00:44:51;95101.28;;;16.24;100.00
11487;BME280;10510;47.942;9.442;2023-07-09T00:49:01;95094.38;;;16.23;100.00
11487;BME280;10510;47.942;9.442;2023-07-09T00:51:10;95098.63;;;16.24;100.00
11487;BME280;10510;47.942;9.442;2023-07-09T00:53:25;95100.06;;;16.27;100.00
11487;BME280;10510;47.942;9.442;2023-07-09T00:55:30;95106.13;;;16.27;100.00
11487;BME280;10510;47.942;9.442;2023-07-09T00:57:32;95102.09;;;16.18;100.00
11487;BME280;10510;47.942;9.442;2023-07-09T00:59:32;95101.28;;;16.11;100.00
11487;BME280;10510;47.942;9.442;2023-07-09T01:01:33;95102.72;;;16.07;100.00
11487;BME280;10510;47.942;9.442;2023-07-09T01:03:42;95095.25;;;16.04;100.00
11487;BME280;10510;47.942;9.442;2023-07-09T01:05:46;95099.09;;;16.01;100.00
11487;BME280;10510;47.942;9.442;2023-07-09T01:07:51;95104.56;;;16.00;100.00
11487;BME280;10510;47.942;9.442;2023-07-09T01:09:53;95105.38;;;15.94;100.00
11487;BME280;10510;47.942;9.442;2023-07-09T01:11:54;95102.38;;;15.77;100.00
11487;BME280;10510;47.942;9.442;2023-07-09T01:14:01;95103.94;;;15.58;100.00
11487;BME280;10510;47.942;9.442;2023-07-09T01:16:02;95112.44;;;15.47;100.00
11487;BME280;10510;47.942;9.442;2023-07-09T01:18:04;95111.25;;;15.42;100.00
11487;BME280;10510;47.942;9.442;2023-07-09T01:20:06;95113.88;;;15.49;100.00
11487;BME280;10510;47.942;9.442;2023-07-09T01:22:15;95112.25;;;15.55;100.00
11487;BME280;10510;47.942;9.442;2023-07-09T01:24:56;95105.78;;;15.57;100.00
11487;BME280;10510;47.942;9.442;2023-07-09T01:27:02;95115.13;;;15.53;100.00
11487;BME280;10510;47.942;9.442;2023-07-09T01:29:03;95104.38;;;15.48;100.00
11487;BME280;10510;47.942;9.442;2023-07-09T01:31:03;95107.59;;;15.43;100.00
11487;BME280;10510;47.942;9.442;2023-07-09T01:33:04;95107.41;;;15.45;100.00
11487;BME280;10510;47.942;9.442;2023-07-09T01:35:06;95107.00;;;15.48;100.00
11487;BME280;10510;47.942;9.442;2023-07-09T01:37:06;95115.31;;;15.52;100.00
11487;BME280;10510;47.942;9.442;2023-07-09T01:39:07;95125.44;;;15.55;100.00
11487;BME280;10510;47.942;9.442;2023-07-09T01:41:07;95114.28;;;15.53;100.00
11487;BME280;10510;47.942;9.442;2023-07-09T01:43:07;95115.53;;;15.50;100.00
11487;BME280;10510;47.942;9.442;2023-07-09T01:45:08;95113.06;;;15.49;100.00
11487;BME280;10510;47.942;9.442;2023-07-09T01:47:10;95120.34;;;15.47;100.00
11487;BME280;10510;47.942;9.442;2023-07-09T01:49:11;95116.91;;;15.46;100.00
11487;BME280;10510;47.942;9.442;2023-07-09T01:51:15;95114.09;;;15.48;100.00
11487;BME280;10510;47.942;9.442;2023-07-09T01:53:19;95121.19;;;15.54;100.00
11487;BME280;10510;47.942;9.442;2023-07-09T01:55:23;95108.59;;;15.49;100.00
11487;BME280;10510;47.942;9.442;2023-07-09T01:57:25;95120.97;;;15.42;100.00
11487;BME280;10510;47.942;9.442;2023-07-09T01:59:33;95114.69;;;15.36;100.00
11487;BME280;10510;47.942;9.442;2023-07-09T02:01:38;95114.06;;;15.34;100.00
11487;BME280;10510;47.942;9.442;2023-07-09T02:03:38;95121.34;;;15.32;100.00
11487;BME280;10510;47.942;9.442;2023-07-09T02:05:40;95120.94;;;15.29;100.00
11487;BME280;10510;47.942;9.442;2023-07-09T02:07:40;95118.94;;;15.24;100.00
11487;BME280;10510;47.942;9.442;2023-07-09T02:09:41;95117.09;;;15.18;100.00
11487;BME280;10510;47.942;9.442;2023-07-09T02:11:41;95123.75;;;15.14;100.00
11487;BME280;10510;47.942;9.442;2023-07-09T02:13:42;95123.75;;;15.14;100.00
11487;BME280;10510;47.942;9.442;2023-07-09T02:15:43;95124.38;;;15.16;100.00
11487;BME280;10510;47.942;9.442;2023-07-09T02:17:44;95125.19;;;15.16;100.00
11487;BME280;10510;47.942;9.442;2023-07-09T02:19:45;95120.13;;;15.15;100.00
11487;BME280;10510;47.942;9.442;2023-07-09T02:21:45;95121.94;;;15.14;100.00
11487;BME280;10510;47.942;9.442;2023-07-09T02:23:45;95113.03;;;15.15;100.00
11487;BME280;10510;47.942;9.442;2023-07-09T02:25:46;95114.47;;;15.18;100.00
11487;BME280;10510;47.942;9.442;2023-07-09T02:27:46;95116.88;;;15.19;100.00
11487;BME280;10510;47.942;9.442;2023-07-09T02:29:46;95121.13;;;15.20;100.00
11487;BME280;10510;47.942;9.442;2023-07-09T02:31:49;95121.13;;;15.20;100.00
11487;BME280;10510;47.942;9.442;2023-07-09T02:33:49;95121.34;;;15.19;100.00
11487;BME280;10510;47.942;9.442;2023-07-09T02:35:50;95121.53;;;15.17;100.00
11487;BME280;10510;47.942;9.442;2023-07-09T02:37:51;95128.63;;;15.17;100.00
11487;BME280;10510;47.942;9.442;2023-07-09T02:39:51;95118.09;;;15.17;100.00
11487;BME280;10510;47.942;9.442;2023-07-09T02:41:52;95118.50;;;15.14;100.00
11487;BME280;10510;47.942;9.442;2023-07-09T02:43:52;95121.53;;;15.11;100.00
11487;BME280;10510;47.942;9.442;2023-07-09T02:45:52;95121.75;;;15.09;100.00
11487;BME280;10510;47.942;9.442;2023-07-09T02:47:52;95125.19;;;15.10;100.00
11487;BME280;10510;47.942;9.442;2023-07-09T02:49:53;95125.56;;;15.07;100.00
11487;BME280;10510;47.942;9.442;2023-07-09T02:51:53;95134.88;;;15.03;100.00
11487;BME280;10510;47.942;9.442;2023-07-09T02:53:58;95136.69;;;14.95;100.00
11487;BME280;10510;47.942;9.442;2023-07-09T02:55:58;95134.84;;;14.89;100.00
11487;BME280;10510;47.942;9.442;2023-07-09T02:57:58;95140.69;;;14.85;100.00
11487;BME280;10510;47.942;9.442;2023-07-09T02:59:58;95143.72;;;14.82;100.00
11487;BME280;10510;47.942;9.442;2023-07-09T03:02:00;95141.47;;;14.79;100.00
11487;BME280;10510;47.942;9.442;2023-07-09T03:04:01;95149.19;;;14.80;100.00
11487;BME280;10510;47.942;9.442;2023-07-09T03:06:02;95149.19;;;14.80;100.00
11487;BME280;10510;47.942;9.442;2023-07-09T03:08:02;95152.41;;;14.82;100.00
11487;BME280;10510;47.942;9.442;2023-07-09T03:10:02;95148.56;;;14.85;100.00
11487;BME280;10510;47.942;9.442;2023-07-09T03:12:04;95151.66;;;14.88;100.00
11487;BME280;10510;47.942;9.442;2023-07-09T03:14:05;95160.75;;;14.86;100.00
11487;BME280;10510;47.942;9.442;2023-07-09T03:16:05;95162.09;;;14.75;100.00
11487;BME280;10510;47.942;9.442;2023-07-09T03:18:05;95154.59;;;14.65;100.00
11487;BME280;10510;47.942;9.442;2023-07-09T03:20:06;95159.63;;;14.60;100.00
11487;BME280;10510;47.942;9.442;2023-07-09T03:22:07;95159.00;;;14.58;100.00
11487;BME280;10510;47.942;9.442;2023-07-09T03:24:08;95162.88;;;14.62;100.00
11487;BME280;10510;47.942;9.442;2023-07-09T03:26:08;95159.41;;;14.62;100.00
11487;BME280;10510;47.942;9.442;2023-07-09T03:28:08;95158.19;;;14.58;100.00
11487;BME280;10510;47.942;9.442;2023-07-09T03:30:09;95164.22;;;14.51;100.00
11487;BME280;10510;47.942;9.442;2023-07-09T03:32:09;95158.50;;;14.41;100.00
11487;BME280;10510;47.942;9.442;2023-07-09T03:34:10;95161.28;;;14.33;100.00
11487;BME280;10510;47.942;9.442;2023-07-09T03:36:10;95161.22;;;14.26;100.00
11487;BME280;10510;47.942;9.442;2023-07-09T03:38:11;95164.59;;;14.20;100.00
11487;BME280;10510;47.942;9.442;2023-07-09T03:40:20;95170.06;;;14.19;100.00
11487;BME280;10510;47.942;9.442;2023-07-09T03:42:21;95158.53;;;14.20;100.00
11487;BME280;10510;47.942;9.442;2023-07-09T03:44:21;95158.38;;;14.21;100.00
11487;BME280;10510;47.942;9.442;2023-07-09T03:46:22;95166.25;;;14.21;100.00
11487;BME280;10510;47.942;9.442;2023-07-09T03:48:22;95156.34;;;14.23;100.00
11487;BME280;10510;47.942;9.442;2023-07-09T03:50:22;95163.41;;;14.23;100.00
11487;BME280;10510;47.942;9.442;2023-07-09T03:52:22;95174.56;;;14.25;100.00
11487;BME280;10510;47.942;9.442;2023-07-09T03:54:23;95179.25;;;14.29;100.00
11487;BME280;10510;47.942;9.442;2023-07-09T03:56:23;95176.03;;;14.34;100.00
11487;BME280;10510;47.942;9.442;2023-07-09T03:58:24;95171.41;;;14.36;100.00
11487;BME280;10510;47.942;9.442;2023-07-09T04:00:25;95174.84;;;14.37;100.00
11487;BME280;10510;47.942;9.442;2023-07-09T04:02:25;95178.09;;;14.39;100.00
11487;BME280;10510;47.942;9.442;2023-07-09T04:04:26;95178.31;;;14.44;100.00
11487;BME280;10510;47.942;9.442;2023-07-09T04:06:26;95170.28;;;14.52;100.00
11487;BME280;10510;47.942;9.442;2023-07-09T04:08:26;95178.84;;;14.61;100.00
11487;BME280;10510;47.942;9.442;2023-07-09T04:10:26;95183.31;;;14.67;100.00
11487;BME280;10510;47.942;9.442;2023-07-09T04:12:27;95174.84;;;14.71;100.00
11487;BME280;10510;47.942;9.442;2023-07-09T04:14:27;95174.06;;;14.77;100.00
11487;BME280;10510;47.942;9.442;2023-07-09T04:16:28;95174.47;;;14.81;100.00
11487;BME280;10510;47.942;9.442;2023-07-09T04:18:28;95175.69;;;14.79;100.00
11487;BME280;10510;47.942;9.442;2023-07-09T04:20:28;95170.19;;;14.73;100.00
11487;BME280;10510;47.942;9.442;2023-07-09T04:22:28;95171.81;;;14.68;100.00
11487;BME280;10510;47.942;9.442;2023-07-09T04:24:30;95176.41;;;14.59;100.00
11487;BME280;10510;47.942;9.442;2023-07-09T04:26:30;95175.78;;;14.57;100.00
11487;BME280;10510;47.942;9.442;2023-07-09T04:28:31;95175.38;;;14.53;100.00
11487;BME280;10510;47.942;9.442;2023-07-09T04:30:31;95180.00;;;14.51;100.00
11487;BME280;10510;47.942;9.442;2023-07-09T04:32:31;95174.47;;;14.46;100.00
11487;BME280;10510;47.942;9.442;2023-07-09T04:34:32;95182.38;;;14.46;100.00
11487;BME280;10510;47.942;9.442;2023-07-09T04:36:33;95181.38;;;14.47;100.00
11487;BME280;10510;47.942;9.442;2023-07-09T04:38:33;95178.19;;;14.52;100.00
11487;BME280;10510;47.942;9.442;2023-07-09T04:40:33;95175.19;;;14.62;100.00
11487;BME280;10510;47.942;9.442;2023-07-09T04:42:34;95178.91;;;14.74;100.00
11487;BME280;10510;47.942;9.442;2023-07-09T04:44:34;95184.59;;;14.84;100.00
11487;BME280;10510;47.942;9.442;2023-07-09T04:46:34;95185.06;;;14.94;100.00
11487;BME280;10510;47.942;9.442;2023-07-09T04:48:34;95178.00;;;15.02;100.00
11487;BME280;10510;47.942;9.442;2023-07-09T04:50:35;95186.34;;;15.12;100.00
11487;BME280;10510;47.942;9.442;2023-07-09T04:52:35;95183.09;;;15.16;100.00
11487;BME280;10510;47.942;9.442;2023-07-09T04:54:35;95187.97;;;15.26;100.00
11487;BME280;10510;47.942;9.442;2023-07-09T04:56:36;95183.97;;;15.37;100.00
11487;BME280;10510;47.942;9.442;2023-07-09T04:58:37;95190.25;;;15.49;100.00
11487;BME280;10510;47.942;9.442;2023-07-09T05:00:37;95184.22;;;15.62;100.00
11487;BME280;10510;47.942;9.442;2023-07-09T05:02:38;95189.31;;;15.77;100.00
11487;BME280;10510;47.942;9.442;2023-07-09T05:04:38;95184.25;;;15.88;100.00
11487;BME280;10510;47.942;9.442;2023-07-09T05:06:38;95181.63;;;15.95;100.00
11487;BME280;10510;47.942;9.442;2023-07-09T05:08:38;95190.31;;;16.02;100.00
11487;BME280;10510;47.942;9.442;2023-07-09T05:10:46;95187.06;;;16.13;100.00
11487;BME280;10510;47.942;9.442;2023-07-09T05:12:48;95186.47;;;16.25;100.00
11487;BME280;10510;47.942;9.442;2023-07-09T05:14:48;95183.41;;;16.34;100.00
11487;BME280;10510;47.942;9.442;2023-07-09T05:16:49;95191.50;;;16.46;100.00
11487;BME280;10510;47.942;9.442;2023-07-09T05:18:49;95185.59;;;16.57;100.00
11487;BME280;10510;47.942;9.442;2023-07-09T05:20:49;95188.41;;;16.69;100.00
11487;BME280;10510;47.942;9.442;2023-07-09T05:22:50;95182.28;;;16.82;100.00
11487;BME280;10510;47.942;9.442;2023-07-09T05:24:51;95182.03;;;16.97;100.00
11487;BME280;10510;47.942;9.442;2023-07-09T05:26:51;95188.88;;;17.11;100.00
11487;BME280;10510;47.942;9.442;2023-07-09T05:28:51;95182.13;;;17.22;100.00
11487;BME280;10510;47.942;9.442;2023-07-09T05:30:52;95185.09;;;17.32;100.00
11487;BME280;10510;47.942;9.442;2023-07-09T05:32:52;95178.56;;;17.41;100.00
11487;BME280;10510;47.942;9.442;2023-07-09T05:34:53;95179.94;;;17.51;100.00
11487;BME280;10510;47.942;9.442;2023-07-09T05:36:53;95182.72;;;17.62;100.00
11487;BME280;10510;47.942;9.442;2023-07-09T05:38:55;95181.00;;;17.75;100.00
11487;BME280;10510;47.942;9.442;2023-07-09T05:41:00;95181.94;;;17.87;100.00
11487;BME280;10510;47.942;9.442;2023-07-09T05:43:01;95181.25;;;17.98;100.00
11487;BME280;10510;47.942;9.442;2023-07-09T05:45:01;95177.09;;;18.09;100.00
11487;BME280;10510;47.942;9.442;2023-07-09T05:47:02;95175.34;;;18.21;100.00
11487;BME280;10510;47.942;9.442;2023-07-09T05:49:04;95178.47;;;18.36;100.00
11487;BME280;10510;47.942;9.442;2023-07-09T05:51:04;95181.13;;;18.55;100.00
11487;BME280;10510;47.942;9.442;2023-07-09T05:53:05;95175.03;;;18.73;100.00
11487;BME280;10510;47.942;9.442;2023-07-09T05:55:06;95174.09;;;20.06;100.00
11487;BME280;10510;47.942;9.442;2023-07-09T05:57:06;95164.16;;;22.71;100.00
11487;BME280;10510;47.942;9.442;2023-07-09T05:59:07;95158.53;;;24.57;100.00
11487;BME280;10510;47.942;9.442;2023-07-09T06:01:07;95145.91;;;25.83;100.00
11487;BME280;10510;47.942;9.442;2023-07-09T06:03:08;95152.56;;;26.68;100.00
11487;BME280;10510;47.942;9.442;2023-07-09T06:05:08;95147.13;;;27.53;100.00
11487;BME280;10510;47.942;9.442;2023-07-09T06:07:12;95144.50;;;28.22;100.00
11487;BME280;10510;47.942;9.442;2023-07-09T06:09:16;95149.09;;;28.80;100.00
11487;BME280;10510;47.942;9.442;2023-07-09T06:11:16;95156.81;;;29.10;100.00
11487;BME280;10510;47.942;9.442;2023-07-09T06:13:17;95148.13;;;29.37;100.00
11487;BME280;10510;47.942;9.442;2023-07-09T06:15:18;95142.19;;;29.59;100.00
11487;BME280;10510;47.942;9.442;2023-07-09T06:17:19;95142.13;;;29.83;100.00
11487;BME280;10510;47.942;9.442;2023-07-09T06:19:19;95144.78;;;30.02;100.00
11487;BME280;10510;47.942;9.442;2023-07-09T06:21:19;95137.22;;;30.04;100.00
11487;BME280;10510;47.942;9.442;2023-07-09T06:23:20;95139.53;;;30.30;100.00
11487;BME280;10510;47.942;9.442;2023-07-09T06:25:20;95145.16;;;30.47;100.00
11487;BME280;10510;47.942;9.442;2023-07-09T06:27:20;95149.59;;;30.71;100.00
11487;BME280;10510;47.942;9.442;2023-07-09T06:29:21;95144.38;;;30.74;100.00
11487;BME280;10510;47.942;9.442;2023-07-09T06:31:21;95138.91;;;30.80;100.00
11487;BME280;10510;47.942;9.442;2023-07-09T06:33:22;95143.13;;;30.86;100.00
11487;BME280;10510;47.942;9.442;2023-07-09T06:35:23;95143.59;;;30.88;100.00
11487;BME280;10510;47.942;9.442;2023-07-09T06:37:23;95143.78;;;30.77;100.00
11487;BME280;10510;47.942;9.442;2023-07-09T06:39:23;95137.22;;;30.84;100.00
11487;BME280;10510;47.942;9.442;2023-07-09T06:41:24;95147.81;;;30.94;100.00
11487;BME280;10510;47.942;9.442;2023-07-09T06:43:24;95144.72;;;31.00;100.00
11487;BME280;10510;47.942;9.442;2023-07-09T06:45:25;95155.00;;;30.98;100.00
11487;BME280;10510;47.942;9.442;2023-07-09T06:47:25;95143.00;;;30.91;100.00
11487;BME280;10510;47.942;9.442;2023-07-09T06:49:25;95143.00;;;31.05;100.00
11487;BME280;10510;47.942;9.442;2023-07-09T06:51:25;95139.00;;;31.30;100.00
11487;BME280;10510;47.942;9.442;2023-07-09T06:53:27;95140.09;;;31.42;100.00
11487;BME280;10510;47.942;9.442;2023-07-09T06:55:27;95137.09;;;31.44;100.00
11487;BME280;10510;47.942;9.442;2023-07-09T06:57:28;95141.19;;;31.28;100.00
11487;BME280;10510;47.942;9.442;2023-07-09T06:59:28;95138.59;;;31.22;100.00
11487;BME280;10510;47.942;9.442;2023-07-09T07:01:28;95141.47;;;31.26;100.00
11487;BME280;10510;47.942;9.442;2023-07-09T07:03:29;95137.50;;;31.37;100.00
11487;BME280;10510;47.942;9.442;2023-07-09T07:05:30;95132.78;;;31.29;100.00
11487;BME280;10510;47.942;9.442;2023-07-09T07:07:31;95142.41;;;31.35;100.00
11487;BME280;10510;47.942;9.442;2023-07-09T07:09:31;95140.78;;;31.34;100.00
11487;BME280;10510;47.942;9.442;2023-07-09T07:11:31;95141.63;;;31.21;100.00
11487;BME280;10510;47.942;9.442;2023-07-09T07:13:37;95137.00;;;31.21;100.00
11487;BME280;10510;47.942;9.442;2023-07-09T07:15:38;95143.78;;;31.47;100.00
11487;BME280;10510;47.942;9.442;2023-07-09T07:17:39;95135.94;;;31.59;100.00
11487;BME280;10510;47.942;9.442;2023-07-09T07:19:39;95138.53;;;31.64;100.00
11487;BME280;10510;47.942;9.442;2023-07-09T07:21:39;95140.72;;;31.76;100.00
11487;BME280;10510;47.942;9.442;2023-07-09T07:23:39;95134.44;;;31.66;100.00
11487;BME280;10510;47.942;9.442;2023-07-09T07:25:41;95140.88;;;31.57;100.00
11487;BME280;10510;47.942;9.442;2023-07-09T07:27:41;95132.53;;;31.67;100.00
11487;BME280;10510;47.942;9.442;2023-07-09T07:29:42;95136.72;;;31.73;100.00
11487;BME280;10510;47.942;9.442;2023-07-09T07:31:42;95132.97;;;31.60;100.00
11487;BME280;10510;47.942;9.442;2023-07-09T07:33:42;95136.97;;;31.49;100.00
11487;BME280;10510;47.942;9.442;2023-07-09T07:35:42;95135.25;;;31.53;100.00
11487;BME280;10510;47.942;9.442;2023-07-09T07:37:43;95132.56;;;31.53;100.00
11487;BME280;10510;47.942;9.442;2023-07-09T07:39:43;95132.63;;;31.62;100.00
11487;BME280;10510;47.942;9.442;2023-07-09T07:41:43;95129.31;;;31.65;100.00
11487;BME280;10510;47.942;9.442;2023-07-09T07:43:44;95122.34;;;31.64;100.00
11487;BME280;10510;47.942;9.442;2023-07-09T07:45:44;95127.69;;;31.78;100.00
11487;BME280;10510;47.942;9.442;2023-07-09T07:47:44;95123.31;;;32.04;100.00
11487;BME280;10510;47.942;9.442;2023-07-09T07:49:45;95120.50;;;32.09;100.00
11487;BME280;10510;47.942;9.442;2023-07-09T07:51:45;95124.00;;;32.10;100.00
11487;BME280;10510;47.942;9.442;2023-07-09T07:53:45;95120.13;;;32.25;100.00
11487;BME280;10510;47.942;9.442;2023-07-09T07:55:45;95116.66;;;32.33;100.00
11487;BME280;10510;47.942;9.442;2023-07-09T07:57:46;95114.38;;;32.49;100.00
11487;BME280;10510;47.942;9.442;2023-07-09T07:59:46;95117.59;;;32.51;100.00
11487;BME280;10510;47.942;9.442;2023-07-09T08:01:47;95114.75;;;32.65;100.00
11487;BME280;10510;47.942;9.442;2023-07-09T08:03:48;95111.00;;;32.74;100.00
11487;BME280;10510;47.942;9.442;2023-07-09T08:05:50;95117.69;;;32.77;100.00
11487;BME280;10510;47.942;9.442;2023-07-09T08:07:50;95113.28;;;32.90;100.00
11487;BME280;10510;47.942;9.442;2023-07-09T08:09:50;95119.88;;;33.06;100.00
11487;BME280;10510;47.942;9.442;2023-07-09T08:11:51;95116.41;;;33.23;100.00
11487;BME280;10510;47.942;9.442;2023-07-09T08:13:51;95110.91;;;33.54;100.00
11487;BME280;10510;47.942;9.442;2023-07-09T08:15:51;95118.25;;;33.71;100.00
11487;BME280;10510;47.942;9.442;2023-07-09T08:17:52;95123.50;;;33.93;100.00
11487;BME280;10510;47.942;9.442;2023-07-09T08:19:53;95120.00;;;33.93;100.00
11487;BME280;10510;47.942;9.442;2023-07-09T08:21:54;95117.28;;;34.19;100.00
11487;BME280;10510;47.942;9.442;2023-07-09T08:23:54;95116.94;;;34.29;100.00
11487;BME280;10510;47.942;9.442;2023-07-09T08:25:56;95120.47;;;34.30;100.00
11487;BME280;10510;47.942;9.442;2023-07-09T08:27:57;95120.94;;;34.23;100.00
11487;BME280;10510;47.942;9.442;2023-07-09T08:29:57;95112.78;;;34.32;100.00
11487;BME280;10510;47.942;9.442;2023-07-09T08:31:57;95114.81;;;34.61;100.00
11487;BME280;10510;47.942;9.442;2023-07-09T08:33:57;95121.22;;;34.48;100.00
11487;BME280;10510;47.942;9.442;2023-07-09T08:35:58;95116.59;;;34.57;100.00
11487;BME280;10510;47.942;9.442;2023-07-09T08:37:58;95117.94;;;34.80;100.00
11487;BME280;10510;47.942;9.442;2023-07-09T08:39:58;95117.69;;;34.94;100.00
11487;BME280;10510;47.942;9.442;2023-07-09T08:42:04;95117.84;;;34.98;100.00
11487;BME280;10510;47.942;9.442;2023-07-09T08:48:32;95116.91;;;34.94;100.00
11487;BME280;10510;47.942;9.442;2023-07-09T08:50:37;95117.97;;;35.10;100.00
11487;BME280;10510;47.942;9.442;2023-07-09T08:52:41;95119.91;;;35.10;100.00
11487;BME280;10510;47.942;9.442;2023-07-09T08:54:43;95117.63;;;35.12;100.00
11487;BME280;10510;47.942;9.442;2023-07-09T08:56:45;95115.75;;;35.03;100.00
11487;BME280;10510;47.942;9.442;2023-07-09T08:58:47;95125.72;;;35.20;100.00
11487;BME280;10510;47.942;9.442;2023-07-09T09:00:56;95123.38;;;35.40;100.00
11487;BME280;10510;47.942;9.442;2023-07-09T09:03:05;95121.63;;;35.65;100.00
11487;BME280;10510;47.942;9.442;2023-07-09T09:05:10;95127.22;;;35.89;100.00
11487;BME280;10510;47.942;9.442;2023-07-09T09:07:41;95126.06;;;35.90;100.00
11487;BME280;10510;47.942;9.442;2023-07-09T09:09:57;95126.25;;;35.85;100.00
11487;BME280;10510;47.942;9.442;2023-07-09T09:14:48;95120.81;;;35.85;100.00
11487;BME280;10510;47.942;9.442;2023-07-09T09:16:53;95115.13;;;35.99;100.00
11487;BME280;10510;47.942;9.442;2023-07-09T09:18:58;95113.97;;;36.00;100.00
11487;BME280;10510;47.942;9.442;2023-07-09T09:21:07;95108.03;;;35.65;100.00
11487;BME280;10510;47.942;9.442;2023-07-09T09:23:13;95115.22;;;35.69;100.00
11487;BME280;10510;47.942;9.442;2023-07-09T09:27:15;95111.50;;;35.95;100.00
11487;BME280;10510;47.942;9.442;2023-07-09T09:29:16;95118.03;;;35.94;100.00
11487;BME280;10510;47.942;9.442;2023-07-09T09:31:17;95116.91;;;36.16;100.00
11487;BME280;10510;47.942;9.442;2023-07-09T09:33:18;95119.97;;;36.14;100.00
11487;BME280;10510;47.942;9.442;2023-07-09T09:35:19;95110.31;;;36.05;100.00
11487;BME280;10510;47.942;9.442;2023-07-09T09:37:30;95122.50;;;35.78;100.00
11487;BME280;10510;47.942;9.442;2023-07-09T09:39:30;95117.34;;;35.64;100.00
11487;BME280;10510;47.942;9.442;2023-07-09T09:41:33;95119.66;;;35.74;100.00
11487;BME280;10510;47.942;9.442;2023-07-09T09:43:37;95124.94;;;35.70;100.00
11487;BME280;10510;47.942;9.442;2023-07-09T09:45:38;95121.31;;;35.66;100.00
11487;BME280;10510;47.942;9.442;2023-07-09T09:47:39;95111.97;;;35.55;100.00
11487;BME280;10510;47.942;9.442;2023-07-09T09:49:43;95112.13;;;35.50;100.00
11487;BME280;10510;47.942;9.442;2023-07-09T09:51:46;95118.19;;;35.56;100.00
11487;BME280;10510;47.942;9.442;2023-07-09T09:53:49;95122.84;;;35.46;100.00
11487;BME280;10510;47.942;9.442;2023-07-09T09:55:53;95121.66;;;35.35;100.00
11487;BME280;10510;47.942;9.442;2023-07-09T09:57:55;95121.50;;;35.32;100.00
11487;BME280;10510;47.942;9.442;2023-07-09T09:59:56;95122.66;;;35.31;100.00
11487;BME280;10510;47.942;9.442;2023-07-09T10:02:05;95118.31;;;35.30;100.00
11487;BME280;10510;47.942;9.442;2023-07-09T10:04:17;95116.91;;;34.94;100.00
11487;BME280;10510;47.942;9.442;2023-07-09T10:06:21;95112.56;;;34.63;100.00
11487;BME280;10510;47.942;9.442;2023-07-09T10:08:41;95103.16;;;34.61;100.00
11487;BME280;10510;47.942;9.442;2023-07-09T10:10:46;95106.81;;;34.65;100.00
11487;BME280;10510;47.942;9.442;2023-07-09T10:15:39;95105.25;;;34.55;100.00
11487;BME280;10510;47.942;9.442;2023-07-09T10:17:49;95109.09;;;34.45;100.00
11487;BME280;10510;47.942;9.442;2023-07-09T10:20:09;95108.59;;;34.52;100.00
11487;BME280;10510;47.942;9.442;2023-07-09T10:25:10;95102.75;;;34.79;100.00
11487;BME280;10510;47.942;9.442;2023-07-09T10:27:18;95105.88;;;34.99;100.00
11487;BME280;10510;47.942;9.442;2023-07-09T10:29:41;95114.66;;;34.96;100.00
11487;BME280;10510;47.942;9.442;2023-07-09T10:33:59;95107.88;;;34.81;100.00
11487;BME280;10510;47.942;9.442;2023-07-09T10:36:23;95095.81;;;34.61;100.00
11487;BME280;10510;47.942;9.442;2023-07-09T10:38:49;95091.84;;;34.50;100.00
11487;BME280;10510;47.942;9.442;2023-07-09T10:40:58;95105.41;;;34.41;100.00
11487;BME280;10510;47.942;9.442;2023-07-09T10:43:03;95110.09;;;34.23;100.00
11487;BME280;10510;47.942;9.442;2023-07-09T10:45:10;95099.88;;;34.29;100.00
11487;BME280;10510;47.942;9.442;2023-07-09T10:47:28;95095.69;;;34.49;100.00
11487;BME280;10510;47.942;9.442;2023-07-09T10:49:34;95103.72;;;34.84;100.00
11487;BME280;10510;47.942;9.442;2023-07-09T10:51:41;95089.47;;;34.57;100.00
11487;BME280;10510;47.942;9.442;2023-07-09T10:53:46;95094.41;;;34.46;100.00
11487;BME280;10510;47.942;9.442;2023-07-09T10:56:11;95092.22;;;34.31;100.00
11487;BME280;10510;47.942;9.442;2023-07-09T10:58:20;95093.50;;;34.33;100.00
11487;BME280;10510;47.942;9.442;2023-07-09T11:00:27;95090.41;;;34.44;100.00